createdAt,value
2022-08-25T00:02:55.203Z,101693.50
2022-08-25T00:08:00.710Z,101672.97
2022-08-25T00:13:04.883Z,101677.44
2022-08-25T00:18:19.462Z,101668.53
2022-08-25T00:23:24.815Z,101679.25
2022-08-25T00:28:28.667Z,101664.09
2022-08-25T00:33:32.211Z,101673.00
2022-08-25T00:38:38.175Z,101660.50
2022-08-25T00:43:47.523Z,101669.47
2022-08-25T00:48:54.714Z,101656.06
2022-08-25T00:53:59.675Z,101659.66
2022-08-25T00:59:04.833Z,101664.13
2022-08-25T01:04:08.310Z,101657.00
2022-08-25T01:09:14.481Z,101661.50
2022-08-25T01:14:20.391Z,101651.69
2022-08-25T01:19:23.343Z,101652.56
2022-08-25T01:24:35.430Z,101654.38
2022-08-25T01:29:38.945Z,101644.53
2022-08-25T01:34:45.594Z,101645.47
2022-08-25T01:39:50.260Z,101651.72
2022-08-25T01:44:53.322Z,101641.91
2022-08-25T01:49:56.281Z,101635.69
2022-08-25T01:55:00.558Z,101647.25
2022-08-25T02:00:05.815Z,101642.81
2022-08-25T02:05:20.318Z,101636.56
2022-08-25T02:10:27.811Z,101636.59
2022-08-25T02:15:30.938Z,101639.28
2022-08-25T02:20:36.350Z,101633.03
2022-08-25T02:25:42.153Z,101625.00
2022-08-25T02:30:45.921Z,101627.66
2022-08-25T02:35:49.324Z,101617.81
2022-08-25T02:40:53.673Z,101629.41
2022-08-25T02:45:56.778Z,101624.06
2022-08-25T02:51:02.155Z,101626.72
2022-08-25T02:56:07.605Z,101613.34
2022-08-25T03:01:12.195Z,101611.53
2022-08-25T03:06:20.027Z,101604.41
2022-08-25T03:11:25.084Z,101600.81
2022-08-25T03:16:28.302Z,101585.69
2022-08-25T03:21:32.843Z,101591.00
2022-08-25T03:26:55.911Z,101586.50
2022-08-25T03:31:59.827Z,101581.16
2022-08-25T03:37:02.903Z,101575.81
2022-08-25T03:42:08.378Z,101577.59
2022-08-25T03:47:11.320Z,101578.41
2022-08-25T03:52:14.387Z,101573.94
2022-08-25T03:57:20.718Z,101567.66
2022-08-25T04:02:23.898Z,101558.72
2022-08-25T04:07:26.995Z,101556.94
2022-08-25T04:12:33.522Z,101552.44
2022-08-25T04:17:39.725Z,101548.00
2022-08-25T04:22:44.846Z,101548.88
2022-08-25T04:27:49.602Z,101556.84
2022-08-25T04:32:52.836Z,101560.38
2022-08-25T04:37:55.797Z,101557.69
2022-08-25T04:43:01.675Z,101551.44
2022-08-25T04:48:05.000Z,101544.25
2022-08-25T04:53:08.233Z,101547.78
2022-08-25T04:58:16.482Z,101545.09
2022-08-25T05:03:19.894Z,101551.34
2022-08-25T05:08:23.244Z,101554.91
2022-08-25T05:13:28.615Z,101557.59
2022-08-25T05:18:34.695Z,101564.75
2022-08-25T05:23:38.197Z,101565.66
2022-08-25T05:28:43.144Z,101571.91
2022-08-25T05:33:46.257Z,101574.59
2022-08-25T05:38:49.506Z,101581.72
2022-08-25T05:43:53.851Z,101575.53
2022-08-25T05:48:56.934Z,101582.69
2022-08-25T05:54:00.030Z,101583.69
2022-08-25T05:59:09.160Z,101586.44
2022-08-25T06:04:12.710Z,101579.41
2022-08-25T06:09:15.778Z,101585.72
2022-08-25T06:14:21.212Z,101585.72
2022-08-25T06:19:24.315Z,101577.72
2022-08-25T06:24:28.844Z,101579.50
2022-08-25T06:29:33.284Z,101580.41
2022-08-25T06:34:37.422Z,101575.94
2022-08-25T06:39:40.591Z,101577.66
2022-08-25T06:44:45.384Z,101576.72
2022-08-25T06:49:48.524Z,101573.13
2022-08-25T06:54:52.228Z,101566.81
2022-08-25T06:59:56.537Z,101560.44
2022-08-25T07:05:00.474Z,101560.34
2022-08-25T07:10:03.473Z,101566.59
2022-08-25T07:15:19.884Z,101568.31
2022-08-25T07:25:26.171Z,101565.59
2022-08-25T07:30:32.416Z,101559.22
2022-08-25T07:35:37.793Z,101560.06
2022-08-25T07:40:43.033Z,101552.81
2022-08-25T07:45:49.412Z,101558.00
2022-08-25T07:50:53.242Z,101551.53
2022-08-25T07:55:56.241Z,101550.47
2022-08-25T08:01:00.723Z,101559.84
2022-08-25T08:06:08.919Z,101553.97
2022-08-25T08:11:16.474Z,101551.81
2022-08-25T08:16:21.880Z,101557.56
2022-08-25T08:21:27.240Z,101563.91
2022-08-25T08:26:55.257Z,101561.25
2022-08-25T08:31:58.971Z,101553.97
2022-08-25T08:37:02.800Z,101553.63
2022-08-25T08:42:18.845Z,101547.28
2022-08-25T08:47:35.728Z,101544.69
2022-08-25T08:52:44.470Z,101553.59
2022-08-25T08:57:51.866Z,101547.34
2022-08-25T09:03:04.666Z,101554.69
2022-08-25T09:08:12.937Z,101546.50
2022-08-25T09:13:26.163Z,101554.06
2022-08-25T09:18:41.209Z,101535.81
2022-08-25T09:24:11.781Z,101537.66
2022-08-25T09:29:21.819Z,101533.94
2022-08-25T09:34:32.019Z,101541.25
2022-08-25T09:39:35.006Z,101535.41
2022-08-25T09:44:43.819Z,101528.91
2022-08-25T09:49:50.749Z,101513.81
2022-08-25T09:54:55.007Z,101512.16
2022-08-25T09:59:58.270Z,101508.41
2022-08-25T10:05:19.933Z,101510.13
2022-08-25T10:10:32.415Z,101514.97
2022-08-25T10:15:37.254Z,101501.81
2022-08-25T10:20:42.250Z,101501.81
2022-08-25T10:25:59.238Z,101492.59
2022-08-25T10:31:12.420Z,101487.41
2022-08-25T10:36:21.570Z,101481.66
2022-08-25T10:41:51.329Z,101473.13
2022-08-25T10:47:07.121Z,101469.56
2022-08-25T10:52:17.471Z,101466.84
2022-08-25T10:57:28.229Z,101445.53
2022-08-25T11:03:03.409Z,101451.16
2022-08-25T11:08:15.551Z,101439.06
2022-08-25T11:13:26.285Z,101437.81
2022-08-25T11:18:31.906Z,101432.53
2022-08-25T11:23:40.902Z,101424.47
2022-08-25T11:28:55.439Z,101424.91
2022-08-25T11:34:00.576Z,101423.69
2022-08-25T11:39:18.018Z,101417.25
2022-08-25T11:44:53.301Z,101409.34
2022-08-25T11:50:05.076Z,101401.97
2022-08-25T11:55:14.443Z,101392.91
2022-08-25T12:00:38.955Z,101399.41
2022-08-25T12:05:53.623Z,101388.31
2022-08-25T12:11:07.209Z,101381.13
2022-08-25T12:16:43.542Z,101386.94
2022-08-25T12:21:46.890Z,101374.59
2022-08-25T12:26:58.622Z,101375.25
2022-08-25T12:32:18.984Z,101370.91
2022-08-25T12:37:25.663Z,101371.75
2022-08-25T12:42:36.405Z,101370.69
2022-08-25T12:47:44.737Z,101359.28
2022-08-25T12:52:48.653Z,101358.91
2022-08-25T12:57:58.711Z,101355.38
2022-08-25T13:03:35.225Z,101358.22
2022-08-25T13:09:22.059Z,101351.84
2022-08-25T13:14:37.794Z,101352.00
2022-08-25T13:19:41.490Z,101356.03
2022-08-25T13:24:47.489Z,101347.03
2022-08-25T13:29:58.108Z,101337.09
2022-08-25T13:35:17.604Z,101343.81
2022-08-25T13:40:26.719Z,101332.91
2022-08-25T13:45:41.895Z,101320.78
2022-08-25T13:50:45.292Z,101323.50
2022-08-25T13:55:57.198Z,101315.19
2022-08-25T14:01:22.596Z,101313.81
2022-08-25T14:06:37.056Z,101318.56
2022-08-25T14:11:44.686Z,101314.94
2022-08-25T14:16:57.407Z,101307.13
2022-08-25T14:22:03.029Z,101302.03
2022-08-25T14:27:06.544Z,101301.13
2022-08-25T14:32:11.325Z,101297.16
2022-08-25T14:37:17.394Z,101292.94
2022-08-25T14:42:20.460Z,101291.59
2022-08-25T14:47:31.824Z,101285.00
2022-08-25T14:52:35.672Z,101285.94
2022-08-25T14:57:39.018Z,101283.47
2022-08-25T15:02:46.731Z,101280.28
2022-08-25T15:08:07.672Z,101287.88
2022-08-25T15:13:15.253Z,101276.28
2022-08-25T15:18:20.055Z,101277.94
2022-08-25T15:23:40.173Z,101268.22
2022-08-25T15:28:49.674Z,101271.25
2022-08-25T15:33:54.763Z,101260.75
2022-08-25T15:38:57.887Z,101252.50
2022-08-25T15:44:00.853Z,101270.84
2022-08-25T15:49:05.392Z,101261.78
2022-08-25T15:54:11.042Z,101248.88
2022-08-25T15:59:16.884Z,101243.31
2022-08-25T16:04:21.375Z,101252.56
2022-08-25T16:09:24.781Z,101260.16
2022-08-25T16:14:28.203Z,101262.53
2022-08-25T16:19:32.938Z,101267.78
2022-08-25T16:24:38.451Z,101266.34
2022-08-25T16:29:43.828Z,101259.88
2022-08-25T16:34:48.208Z,101275.94
2022-08-25T16:39:53.870Z,101283.22
2022-08-25T16:44:58.213Z,101291.53
2022-08-25T16:50:05.009Z,101298.91
2022-08-25T16:55:17.658Z,101293.28
2022-08-25T17:00:23.743Z,101297.22
2022-08-25T17:05:29.230Z,101289.97
2022-08-25T17:10:33.590Z,101283.09
2022-08-25T17:15:41.262Z,101305.03
2022-08-25T17:20:46.635Z,101303.53
2022-08-25T17:25:52.073Z,101295.97
2022-08-25T17:30:58.552Z,101301.78
2022-08-25T17:36:04.839Z,101301.69
2022-08-25T17:41:09.595Z,101308.94
2022-08-25T17:46:13.181Z,101319.69
2022-08-25T17:51:17.800Z,101320.59
2022-08-25T17:56:23.874Z,101330.81
2022-08-25T18:01:29.222Z,101332.97
2022-08-25T18:06:34.764Z,101339.09
2022-08-25T18:11:37.796Z,101344.44
2022-08-25T18:16:42.259Z,101355.19
2022-08-25T18:21:46.925Z,101346.31
2022-08-25T18:26:50.435Z,101356.00
2022-08-25T18:31:57.030Z,101360.06
2022-08-25T18:37:19.848Z,101363.97
2022-08-25T18:42:22.918Z,101364.69
2022-08-25T18:47:25.983Z,101389.44
2022-08-25T18:52:30.418Z,101392.66
2022-08-25T18:57:36.861Z,101397.53
2022-08-25T19:02:41.968Z,101416.81
2022-08-25T19:07:52.063Z,101407.19
2022-08-25T19:12:57.102Z,101427.03
2022-08-25T19:18:00.790Z,101423.41
2022-08-25T19:23:10.916Z,101427.34
2022-08-25T19:28:14.131Z,101447.13
2022-08-25T19:33:42.195Z,101448.41
2022-08-25T19:38:41.886Z,101459.41
2022-08-25T19:43:56.336Z,101459.50
2022-08-25T19:49:04.900Z,101456.03
2022-08-25T19:54:13.863Z,101468.59
2022-08-25T19:59:17.917Z,101457.94
2022-08-25T20:04:21.327Z,101474.22
2022-08-25T20:09:39.629Z,101478.81
2022-08-25T20:14:43.826Z,101486.91
2022-08-25T20:19:47.120Z,101497.75
2022-08-25T20:24:55.795Z,101502.34
2022-08-25T20:29:59.747Z,101504.22
2022-08-25T20:35:09.377Z,101495.31
2022-08-25T20:40:20.776Z,101497.19
2022-08-25T20:45:28.973Z,101502.53
2022-08-25T20:50:33.660Z,101494.53
2022-08-25T20:55:42.555Z,101491.03
2022-08-25T21:00:47.914Z,101511.59
2022-08-25T21:05:53.596Z,101513.38
2022-08-25T21:10:58.596Z,101523.16
2022-08-25T21:16:03.038Z,101516.06
2022-08-25T21:21:14.103Z,101516.09
2022-08-25T21:26:20.807Z,101537.53
2022-08-25T21:31:24.041Z,101530.41
2022-08-25T21:36:29.819Z,101541.09
2022-08-25T21:41:39.139Z,101544.72
2022-08-25T21:46:54.534Z,101550.97
2022-08-25T21:52:02.416Z,101539.41
2022-08-25T21:57:08.761Z,101544.75
2022-08-25T22:02:19.283Z,101545.63
2022-08-25T22:07:25.695Z,101555.41
2022-08-25T22:12:30.128Z,101547.38
2022-08-25T22:17:34.305Z,101558.09
2022-08-25T22:22:37.545Z,101570.56
2022-08-25T22:27:42.107Z,101565.22
2022-08-25T22:32:45.404Z,101570.59
2022-08-25T22:37:48.708Z,101573.25
2022-08-25T22:42:53.322Z,101575.03
2022-08-25T22:47:56.593Z,101579.47
2022-08-25T22:52:59.594Z,101590.16
2022-08-25T22:58:04.730Z,101588.41
2022-08-25T23:03:07.987Z,101591.09
2022-08-25T23:08:11.129Z,101589.31
2022-08-25T23:13:25.019Z,101584.84
2022-08-25T23:18:43.068Z,101595.53
2022-08-25T23:23:47.670Z,101593.75
2022-08-25T23:28:53.810Z,101590.16
2022-08-25T23:34:01.291Z,101586.59
2022-08-25T23:39:07.731Z,101598.16
2022-08-25T23:44:17.332Z,101590.19
2022-08-25T23:49:23.507Z,101586.56
2022-08-25T23:54:31.182Z,101585.69
2022-08-25T23:59:37.837Z,101583.88
